Terminal Aerodrome Forecast
Issued by NWS Columbia, SC

Home | Current Version | Previous Version | Text Only | Print | Product List | Glossary On
Versions: 1 2 3 4 5 6 7 8 9 10 11 12 13 14 15 16 17 18 19 20 21 22 23 24 25 26 27 28
000
FTUS42 KCAE 221500 AAB
TAFCAE
TAF AMD
KCAE 221539Z 2216/2312 03007KT P6SM VCSH SCT035 BKN100
      TEMPO 2216/2218 6SM -SHRA BR BKN035
     FM222100 04006KT P6SM SCT040 BKN100
     FM222300 VRB04KT P6SM BKN250=

USA.gov is the U.S. government's official web portal to all federal, state and local government web resources and services.